sensor_id;sensor_type;location;lat;lon;timestamp;pressure;altitude;pressure_sealevel;temperature;humidity
74163;BME280;62515;52.758;5.076;2023-12-22T00:02:19;100175.53;;;7.26;100.00
74163;BME280;62515;52.758;5.076;2023-12-22T00:04:45;100168.16;;;7.31;100.00
74163;BME280;62515;52.758;5.076;2023-12-22T00:07:13;100180.19;;;7.35;100.00
74163;BME280;62515;52.758;5.076;2023-12-22T00:09:40;100135.63;;;7.42;100.00
74163;BME280;62515;52.758;5.076;2023-12-22T00:12:07;100168.16;;;7.31;100.00
74163;BME280;62515;52.758;5.076;2023-12-22T00:14:34;100156.50;;;7.33;100.00
74163;BME280;62515;52.758;5.076;2023-12-22T00:17:01;100157.00;;;7.26;100.00
74163;BME280;62515;52.758;5.076;2023-12-22T00:19:28;100173.00;;;7.24;100.00
74163;BME280;62515;52.758;5.076;2023-12-22T00:21:54;100133.84;;;7.29;100.00
74163;BME280;62515;52.758;5.076;2023-12-22T00:24:22;100172.59;;;7.18;100.00
74163;BME280;62515;52.758;5.076;2023-12-22T00:26:49;100166.88;;;7.11;100.00
74163;BME280;62515;52.758;5.076;2023-12-22T00:29:16;100157.72;;;7.03;100.00
74163;BME280;62515;52.758;5.076;2023-12-22T00:31:46;100155.22;;;7.01;100.00
74163;BME280;62515;52.758;5.076;2023-12-22T00:34:13;100160.78;;;6.97;100.00
74163;BME280;62515;52.758;5.076;2023-12-22T00:36:40;100153.19;;;6.92;100.00
74163;BME280;62515;52.758;5.076;2023-12-22T00:39:07;100159.00;;;6.84;100.00
74163;BME280;62515;52.758;5.076;2023-12-22T00:41:35;100162.13;;;6.77;100.00
74163;BME280;62515;52.758;5.076;2023-12-22T00:44:01;100151.13;;;6.70;100.00
74163;BME280;62515;52.758;5.076;2023-12-22T00:46:28;100166.19;;;6.82;100.00
74163;BME280;62515;52.758;5.076;2023-12-22T00:48:55;100172.22;;;6.84;100.00
74163;BME280;62515;52.758;5.076;2023-12-22T00:51:22;100182.56;;;6.75;100.00
74163;BME280;62515;52.758;5.076;2023-12-22T00:53:48;100179.66;;;6.65;100.00
74163;BME280;62515;52.758;5.076;2023-12-22T00:56:15;100192.31;;;6.60;100.00
74163;BME280;62515;52.758;5.076;2023-12-22T00:58:43;100197.25;;;6.66;100.00
74163;BME280;62515;52.758;5.076;2023-12-22T01:01:21;100192.78;;;6.67;100.00
74163;BME280;62515;52.758;5.076;2023-12-22T01:03:47;100206.75;;;6.69;100.00
74163;BME280;62515;52.758;5.076;2023-12-22T01:06:14;100197.56;;;6.74;100.00
74163;BME280;62515;52.758;5.076;2023-12-22T01:08:41;100205.41;;;6.76;100.00
74163;BME280;62515;52.758;5.076;2023-12-22T01:11:08;100220.34;;;6.90;100.00
74163;BME280;62515;52.758;5.076;2023-12-22T01:13:34;100233.84;;;6.72;100.00
74163;BME280;62515;52.758;5.076;2023-12-22T01:16:03;100252.53;;;5.14;100.00
74163;BME280;62515;52.758;5.076;2023-12-22T01:18:30;100248.41;;;4.64;100.00
74163;BME280;62515;52.758;5.076;2023-12-22T01:20:56;100256.00;;;4.55;100.00
74163;BME280;62515;52.758;5.076;2023-12-22T01:23:23;100263.28;;;4.50;100.00
74163;BME280;62515;52.758;5.076;2023-12-22T01:25:50;100241.78;;;4.42;100.00
74163;BME280;62515;52.758;5.076;2023-12-22T01:28:17;100244.31;;;4.43;100.00
74163;BME280;62515;52.758;5.076;2023-12-22T01:30:43;100244.16;;;4.46;100.00
74163;BME280;62515;52.758;5.076;2023-12-22T01:33:12;100234.22;;;4.51;100.00
74163;BME280;62515;52.758;5.076;2023-12-22T01:35:38;100232.00;;;4.59;100.00
74163;BME280;62515;52.758;5.076;2023-12-22T01:38:05;100233.06;;;4.87;100.00
74163;BME280;62515;52.758;5.076;2023-12-22T01:40:32;100225.19;;;5.01;100.00
74163;BME280;62515;52.758;5.076;2023-12-22T01:43:00;100245.03;;;5.22;100.00
74163;BME280;62515;52.758;5.076;2023-12-22T01:45:27;100246.63;;;5.24;100.00
74163;BME280;62515;52.758;5.076;2023-12-22T01:47:54;100254.09;;;5.32;100.00
74163;BME280;62515;52.758;5.076;2023-12-22T01:50:22;100257.00;;;5.27;100.00
74163;BME280;62515;52.758;5.076;2023-12-22T01:52:50;100255.41;;;5.25;100.00
74163;BME280;62515;52.758;5.076;2023-12-22T01:55:17;100251.84;;;5.26;100.00
74163;BME280;62515;52.758;5.076;2023-12-22T01:57:44;100255.75;;;5.19;100.00
74163;BME280;62515;52.758;5.076;2023-12-22T02:00:13;100255.03;;;5.17;100.00
74163;BME280;62515;52.758;5.076;2023-12-22T02:02:41;100244.09;;;5.23;100.00
74163;BME280;62515;52.758;5.076;2023-12-22T02:05:08;100250.78;;;5.28;100.00
74163;BME280;62515;52.758;5.076;2023-12-22T02:07:36;100249.56;;;5.20;100.00
74163;BME280;62515;52.758;5.076;2023-12-22T02:10:04;100250.66;;;5.16;100.00
74163;BME280;62515;52.758;5.076;2023-12-22T02:12:31;100238.72;;;5.24;100.00
74163;BME280;62515;52.758;5.076;2023-12-22T02:14:57;100258.66;;;5.44;100.00
74163;BME280;62515;52.758;5.076;2023-12-22T02:17:26;100247.06;;;5.61;100.00
74163;BME280;62515;52.758;5.076;2023-12-22T02:19:56;100247.47;;;5.83;100.00
74163;BME280;62515;52.758;5.076;2023-12-22T02:22:29;100233.63;;;5.94;100.00
74163;BME280;62515;52.758;5.076;2023-12-22T02:24:56;100224.66;;;5.96;100.00
74163;BME280;62515;52.758;5.076;2023-12-22T02:27:28;100229.47;;;6.04;100.00
74163;BME280;62515;52.758;5.076;2023-12-22T02:30:03;100194.84;;;6.08;100.00
74163;BME280;62515;52.758;5.076;2023-12-22T02:32:35;100225.28;;;6.28;100.00
74163;BME280;62515;52.758;5.076;2023-12-22T02:35:19;100237.72;;;6.40;100.00
74163;BME280;62515;52.758;5.076;2023-12-22T02:37:48;100226.09;;;6.43;100.00
74163;BME280;62515;52.758;5.076;2023-12-22T02:40:16;100229.03;;;6.38;100.00
74163;BME280;62515;52.758;5.076;2023-12-22T02:42:44;100225.47;;;6.25;100.00
74163;BME280;62515;52.758;5.076;2023-12-22T02:45:13;100236.44;;;6.19;100.00
74163;BME280;62515;52.758;5.076;2023-12-22T02:47:40;100227.31;;;6.10;100.00
74163;BME280;62515;52.758;5.076;2023-12-22T02:50:08;100214.84;;;6.12;100.00
74163;BME280;62515;52.758;5.076;2023-12-22T02:52:35;100202.22;;;6.03;100.00
74163;BME280;62515;52.758;5.076;2023-12-22T02:55:04;100223.06;;;5.94;100.00
74163;BME280;62515;52.758;5.076;2023-12-22T02:57:31;100244.06;;;5.81;100.00
74163;BME280;62515;52.758;5.076;2023-12-22T02:59:58;100244.75;;;5.85;100.00
74163;BME280;62515;52.758;5.076;2023-12-22T03:02:25;100223.81;;;5.96;100.00
74163;BME280;62515;52.758;5.076;2023-12-22T03:04:52;100217.97;;;5.91;100.00
74163;BME280;62515;52.758;5.076;2023-12-22T03:07:18;100230.59;;;6.00;100.00
74163;BME280;62515;52.758;5.076;2023-12-22T03:09:45;100225.88;;;6.05;100.00
74163;BME280;62515;52.758;5.076;2023-12-22T03:12:13;100231.00;;;6.08;100.00
74163;BME280;62515;52.758;5.076;2023-12-22T03:14:40;100235.50;;;6.06;100.00
74163;BME280;62515;52.758;5.076;2023-12-22T03:17:07;100228.91;;;6.13;100.00
74163;BME280;62515;52.758;5.076;2023-12-22T03:19:34;100231.06;;;6.20;100.00
74163;BME280;62515;52.758;5.076;2023-12-22T03:22:01;100221.66;;;6.43;100.00
74163;BME280;62515;52.758;5.076;2023-12-22T03:24:28;100231.66;;;6.52;100.00
74163;BME280;62515;52.758;5.076;2023-12-22T03:26:56;100245.41;;;6.57;100.00
74163;BME280;62515;52.758;5.076;2023-12-22T03:29:24;100202.91;;;6.60;100.00
74163;BME280;62515;52.758;5.076;2023-12-22T03:31:50;100228.25;;;6.50;100.00
74163;BME280;62515;52.758;5.076;2023-12-22T03:34:17;100241.63;;;6.61;100.00
74163;BME280;62515;52.758;5.076;2023-12-22T03:36:44;100231.28;;;6.71;100.00
74163;BME280;62515;52.758;5.076;2023-12-22T03:39:11;100252.91;;;6.77;100.00
74163;BME280;62515;52.758;5.076;2023-12-22T03:41:38;100238.81;;;6.77;100.00
74163;BME280;62515;52.758;5.076;2023-12-22T03:44:04;100244.97;;;6.77;100.00
74163;BME280;62515;52.758;5.076;2023-12-22T03:46:32;100250.13;;;6.66;100.00
74163;BME280;62515;52.758;5.076;2023-12-22T03:48:59;100239.56;;;6.52;100.00
74163;BME280;62515;52.758;5.076;2023-12-22T03:51:26;100223.16;;;6.47;100.00
74163;BME280;62515;52.758;5.076;2023-12-22T03:53:53;100231.88;;;6.35;100.00
74163;BME280;62515;52.758;5.076;2023-12-22T03:56:20;100241.63;;;6.20;100.00
74163;BME280;62515;52.758;5.076;2023-12-22T03:58:46;100239.34;;;6.28;100.00
74163;BME280;62515;52.758;5.076;2023-12-22T04:01:14;100264.44;;;6.21;100.00
74163;BME280;62515;52.758;5.076;2023-12-22T04:03:42;100257.75;;;6.30;100.00
74163;BME280;62515;52.758;5.076;2023-12-22T04:06:09;100265.09;;;6.39;100.00
74163;BME280;62515;52.758;5.076;2023-12-22T04:08:36;100270.63;;;6.49;100.00
74163;BME280;62515;52.758;5.076;2023-12-22T04:11:03;100266.81;;;6.40;100.00
74163;BME280;62515;52.758;5.076;2023-12-22T04:13:29;100244.41;;;6.46;100.00
74163;BME280;62515;52.758;5.076;2023-12-22T04:15:56;100264.63;;;6.47;100.00
74163;BME280;62515;52.758;5.076;2023-12-22T04:18:23;100270.56;;;6.50;100.00
74163;BME280;62515;52.758;5.076;2023-12-22T04:20:51;100259.59;;;6.56;100.00
74163;BME280;62515;52.758;5.076;2023-12-22T04:23:18;100262.94;;;6.72;100.00
74163;BME280;62515;52.758;5.076;2023-12-22T04:25:44;100230.44;;;6.70;100.00
74163;BME280;62515;52.758;5.076;2023-12-22T04:28:11;100263.34;;;6.66;100.00
74163;BME280;62515;52.758;5.076;2023-12-22T04:30:38;100254.25;;;6.70;100.00
74163;BME280;62515;52.758;5.076;2023-12-22T04:33:05;100259.03;;;6.78;100.00
74163;BME280;62515;52.758;5.076;2023-12-22T04:35:32;100260.34;;;6.85;100.00
74163;BME280;62515;52.758;5.076;2023-12-22T04:38:00;100252.59;;;6.82;100.00
74163;BME280;62515;52.758;5.076;2023-12-22T04:40:27;100257.50;;;6.88;100.00
74163;BME280;62515;52.758;5.076;2023-12-22T04:42:53;100257.09;;;6.94;100.00
74163;BME280;62515;52.758;5.076;2023-12-22T04:45:20;100254.03;;;7.00;100.00
74163;BME280;62515;52.758;5.076;2023-12-22T04:47:47;100254.69;;;7.04;100.00
74163;BME280;62515;52.758;5.076;2023-12-22T04:50:14;100254.34;;;6.96;100.00
74163;BME280;62515;52.758;5.076;2023-12-22T04:52:41;100250.63;;;6.86;100.00
74163;BME280;62515;52.758;5.076;2023-12-22T04:55:09;100230.34;;;6.99;100.00
74163;BME280;62515;52.758;5.076;2023-12-22T04:57:36;100246.09;;;7.00;100.00
74163;BME280;62515;52.758;5.076;2023-12-22T05:00:03;100251.28;;;7.02;100.00
74163;BME280;62515;52.758;5.076;2023-12-22T05:02:30;100244.09;;;7.04;100.00
74163;BME280;62515;52.758;5.076;2023-12-22T05:04:57;100233.44;;;7.05;100.00
74163;BME280;62515;52.758;5.076;2023-12-22T05:07:23;100236.16;;;7.04;100.00
74163;BME280;62515;52.758;5.076;2023-12-22T05:09:50;100240.06;;;6.98;100.00
74163;BME280;62515;52.758;5.076;2023-12-22T05:12:18;100233.94;;;6.98;100.00
74163;BME280;62515;52.758;5.076;2023-12-22T05:14:45;100242.81;;;6.97;100.00
74163;BME280;62515;52.758;5.076;2023-12-22T05:17:12;100243.94;;;6.93;100.00
74163;BME280;62515;52.758;5.076;2023-12-22T05:19:38;100242.81;;;6.97;100.00
74163;BME280;62515;52.758;5.076;2023-12-22T05:22:05;100237.31;;;7.00;100.00
74163;BME280;62515;52.758;5.076;2023-12-22T05:24:32;100232.56;;;7.05;100.00
74163;BME280;62515;52.758;5.076;2023-12-22T05:26:58;100239.34;;;7.09;100.00
74163;BME280;62515;52.758;5.076;2023-12-22T05:29:26;100242.19;;;7.06;100.00
74163;BME280;62515;52.758;5.076;2023-12-22T05:31:53;100246.22;;;6.99;100.00
74163;BME280;62515;52.758;5.076;2023-12-22T05:34:20;100245.81;;;7.05;100.00
74163;BME280;62515;52.758;5.076;2023-12-22T05:36:47;100247.25;;;6.96;100.00
74163;BME280;62515;52.758;5.076;2023-12-22T05:39:13;100264.16;;;6.94;100.00
74163;BME280;62515;52.758;5.076;2023-12-22T05:41:40;100257.50;;;6.88;100.00
74163;BME280;62515;52.758;5.076;2023-12-22T05:44:07;100262.78;;;6.88;100.00
74163;BME280;62515;52.758;5.076;2023-12-22T05:46:37;100259.88;;;6.78;100.00
74163;BME280;62515;52.758;5.076;2023-12-22T05:49:04;100282.31;;;6.59;100.00
74163;BME280;62515;52.758;5.076;2023-12-22T05:51:36;100263.59;;;6.35;100.00
74163;BME280;62515;52.758;5.076;2023-12-22T05:54:03;100272.78;;;6.01;100.00
74163;BME280;62515;52.758;5.076;2023-12-22T05:56:29;100267.56;;;5.86;100.00
74163;BME280;62515;52.758;5.076;2023-12-22T05:58:56;100264.53;;;5.77;100.00
74163;BME280;62515;52.758;5.076;2023-12-22T06:01:23;100263.44;;;5.96;100.00
74163;BME280;62515;52.758;5.076;2023-12-22T06:03:51;100260.41;;;6.16;100.00
74163;BME280;62515;52.758;5.076;2023-12-22T06:06:18;100259.09;;;6.09;100.00
74163;BME280;62515;52.758;5.076;2023-12-22T06:08:44;100258.88;;;6.12;100.00
74163;BME280;62515;52.758;5.076;2023-12-22T06:11:11;100254.66;;;6.09;100.00
74163;BME280;62515;52.758;5.076;2023-12-22T06:13:38;100250.63;;;6.04;100.00
74163;BME280;62515;52.758;5.076;2023-12-22T06:16:05;100255.78;;;6.05;100.00
74163;BME280;62515;52.758;5.076;2023-12-22T06:18:32;100269.66;;;6.09;100.00
74163;BME280;62515;52.758;5.076;2023-12-22T06:21:00;100264.28;;;6.10;100.00
74163;BME280;62515;52.758;5.076;2023-12-22T06:23:27;100255.69;;;6.07;100.00
74163;BME280;62515;52.758;5.076;2023-12-22T06:25:56;100240.78;;;6.06;100.00
74163;BME280;62515;52.758;5.076;2023-12-22T06:28:23;100261.91;;;6.06;100.00
74163;BME280;62515;52.758;5.076;2023-12-22T06:30:50;100254.75;;;6.08;100.00
74163;BME280;62515;52.758;5.076;2023-12-22T06:33:16;100252.41;;;6.17;100.00
74163;BME280;62515;52.758;5.076;2023-12-22T06:35:43;100247.34;;;6.41;100.00
74163;BME280;62515;52.758;5.076;2023-12-22T06:38:12;100250.19;;;6.65;100.00
74163;BME280;62515;52.758;5.076;2023-12-22T06:40:38;100258.03;;;6.93;100.00
74163;BME280;62515;52.758;5.076;2023-12-22T06:43:05;100261.88;;;7.02;100.00
74163;BME280;62515;52.758;5.076;2023-12-22T06:45:32;100261.00;;;6.89;100.00
74163;BME280;62515;52.758;5.076;2023-12-22T06:47:59;100259.53;;;6.70;100.00
74163;BME280;62515;52.758;5.076;2023-12-22T06:50:26;100264.28;;;6.65;100.00
74163;BME280;62515;52.758;5.076;2023-12-22T06:52:52;100256.75;;;6.59;100.00
74163;BME280;62515;52.758;5.076;2023-12-22T06:55:21;100264.69;;;6.59;100.00
74163;BME280;62515;52.758;5.076;2023-12-22T06:57:48;100268.72;;;6.51;100.00
74163;BME280;62515;52.758;5.076;2023-12-22T07:00:16;100270.91;;;6.44;100.00
74163;BME280;62515;52.758;5.076;2023-12-22T07:02:43;100270.41;;;6.66;100.00
74163;BME280;62515;52.758;5.076;2023-12-22T07:05:34;100277.34;;;7.08;100.00
74163;BME280;62515;52.758;5.076;2023-12-22T07:08:01;100267.97;;;7.29;100.00
74163;BME280;62515;52.758;5.076;2023-12-22T07:10:29;100255.19;;;7.48;100.00
74163;BME280;62515;52.758;5.076;2023-12-22T07:12:55;100261.88;;;7.54;100.00
74163;BME280;62515;52.758;5.076;2023-12-22T07:15:22;100250.09;;;7.58;100.00
74163;BME280;62515;52.758;5.076;2023-12-22T07:17:49;100257.72;;;7.50;100.00
74163;BME280;62515;52.758;5.076;2023-12-22T07:20:16;100260.25;;;7.51;100.00
74163;BME280;62515;52.758;5.076;2023-12-22T07:22:44;100253.50;;;7.47;100.00
74163;BME280;62515;52.758;5.076;2023-12-22T07:25:11;100244.81;;;7.58;100.00
74163;BME280;62515;52.758;5.076;2023-12-22T07:27:41;100241.13;;;7.60;100.00
74163;BME280;62515;52.758;5.076;2023-12-22T07:30:09;100247.44;;;7.58;100.00
74163;BME280;62515;52.758;5.076;2023-12-22T07:32:36;100242.06;;;7.72;100.00
74163;BME280;62515;52.758;5.076;2023-12-22T07:35:03;100245.56;;;7.85;100.00
74163;BME280;62515;52.758;5.076;2023-12-22T07:37:30;100258.81;;;7.85;100.00
74163;BME280;62515;52.758;5.076;2023-12-22T07:39:57;100269.19;;;7.88;100.00
74163;BME280;62515;52.758;5.076;2023-12-22T07:42:24;100260.28;;;7.89;100.00
74163;BME280;62515;52.758;5.076;2023-12-22T07:44:53;100252.53;;;7.99;100.00
74163;BME280;62515;52.758;5.076;2023-12-22T07:47:20;100264.09;;;7.98;100.00
74163;BME280;62515;52.758;5.076;2023-12-22T07:49:47;100246.91;;;7.90;100.00
74163;BME280;62515;52.758;5.076;2023-12-22T07:52:15;100254.78;;;7.92;100.00
74163;BME280;62515;52.758;5.076;2023-12-22T07:54:42;100226.16;;;7.84;100.00
74163;BME280;62515;52.758;5.076;2023-12-22T07:57:09;100221.94;;;7.82;100.00
74163;BME280;62515;52.758;5.076;2023-12-22T07:59:35;100224.25;;;7.74;100.00
74163;BME280;62515;52.758;5.076;2023-12-22T08:02:04;100229.78;;;7.83;100.00
74163;BME280;62515;52.758;5.076;2023-12-22T08:04:31;100244.41;;;7.76;100.00
74163;BME280;62515;52.758;5.076;2023-12-22T08:06:57;100216.84;;;7.66;100.00
74163;BME280;62515;52.758;5.076;2023-12-22T08:09:24;100220.88;;;7.34;100.00
74163;BME280;62515;52.758;5.076;2023-12-22T08:11:51;100203.16;;;7.22;100.00
74163;BME280;62515;52.758;5.076;2023-12-22T08:14:18;100219.16;;;7.20;100.00
74163;BME280;62515;52.758;5.076;2023-12-22T08:16:45;100214.94;;;7.30;100.00
74163;BME280;62515;52.758;5.076;2023-12-22T08:19:13;100196.09;;;7.48;100.00
74163;BME280;62515;52.758;5.076;2023-12-22T08:21:42;100186.75;;;7.55;100.00
74163;BME280;62515;52.758;5.076;2023-12-22T08:24:12;100178.00;;;7.54;100.00
74163;BME280;62515;52.758;5.076;2023-12-22T08:26:48;100191.66;;;7.61;100.00
74163;BME280;62515;52.758;5.076;2023-12-22T08:29:15;100183.28;;;7.67;100.00
74163;BME280;62515;52.758;5.076;2023-12-22T08:31:41;100178.44;;;7.97;100.00
74163;BME280;62515;52.758;5.076;2023-12-22T08:34:08;100192.22;;;8.02;100.00
74163;BME280;62515;52.758;5.076;2023-12-22T08:36:37;100199.53;;;8.11;100.00
74163;BME280;62515;52.758;5.076;2023-12-22T08:39:04;100197.09;;;8.08;100.00
74163;BME280;62515;52.758;5.076;2023-12-22T08:41:32;100189.66;;;8.13;100.00
74163;BME280;62515;52.758;5.076;2023-12-22T08:43:59;100195.06;;;8.12;100.00
74163;BME280;62515;52.758;5.076;2023-12-22T08:46:26;100217.53;;;8.19;100.00
74163;BME280;62515;52.758;5.076;2023-12-22T08:48:53;100222.25;;;8.26;100.00
74163;BME280;62515;52.758;5.076;2023-12-22T08:51:19;100220.41;;;8.28;100.00
74163;BME280;62515;52.758;5.076;2023-12-22T08:53:47;100219.31;;;8.31;100.00
74163;BME280;62515;52.758;5.076;2023-12-22T08:56:14;100218.56;;;8.42;100.00
74163;BME280;62515;52.758;5.076;2023-12-22T08:58:41;100221.09;;;8.43;100.00
74163;BME280;62515;52.758;5.076;2023-12-22T09:01:14;100229.25;;;8.40;100.00
74163;BME280;62515;52.758;5.076;2023-12-22T09:03:40;100222.06;;;8.42;100.00
74163;BME280;62515;52.758;5.076;2023-12-22T09:06:07;100226.75;;;8.38;100.00
74163;BME280;62515;52.758;5.076;2023-12-22T09:08:34;100208.44;;;8.47;100.00
74163;BME280;62515;52.758;5.076;2023-12-22T09:11:03;100216.31;;;8.48;100.00
74163;BME280;62515;52.758;5.076;2023-12-22T09:13:29;100221.38;;;8.51;100.00
74163;BME280;62515;52.758;5.076;2023-12-22T09:15:56;100226.00;;;8.60;100.00
74163;BME280;62515;52.758;5.076;2023-12-22T09:18:23;100228.75;;;8.59;100.00
74163;BME280;62515;52.758;5.076;2023-12-22T09:20:50;100219.00;;;8.59;100.00
74163;BME280;62515;52.758;5.076;2023-12-22T09:23:17;100225.50;;;8.55;100.00
74163;BME280;62515;52.758;5.076;2023-12-22T09:25:43;100220.00;;;8.58;100.00
74163;BME280;62515;52.758;5.076;2023-12-22T09:28:12;100231.31;;;8.60;100.00
74163;BME280;62515;52.758;5.076;2023-12-22T09:30:38;100222.63;;;8.58;100.00
74163;BME280;62515;52.758;5.076;2023-12-22T09:33:05;100229.66;;;8.47;100.00
74163;BME280;62515;52.758;5.076;2023-12-22T09:35:32;100223.75;;;8.43;100.00
74163;BME280;62515;52.758;5.076;2023-12-22T09:37:59;100230.06;;;8.53;100.00
74163;BME280;62515;52.758;5.076;2023-12-22T09:40:26;100233.44;;;8.55;100.00
74163;BME280;62515;52.758;5.076;2023-12-22T09:42:54;100241.25;;;8.69;100.00
74163;BME280;62515;52.758;5.076;2023-12-22T09:45:25;100227.84;;;8.83;100.00
74163;BME280;62515;52.758;5.076;2023-12-22T09:47:52;100248.31;;;8.81;100.00
74163;BME280;62515;52.758;5.076;2023-12-22T09:50:21;100241.94;;;8.84;100.00
74163;BME280;62515;52.758;5.076;2023-12-22T09:52:49;100253.91;;;8.89;100.00
74163;BME280;62515;52.758;5.076;2023-12-22T09:55:16;100256.44;;;8.91;100.00
74163;BME280;62515;52.758;5.076;2023-12-22T09:57:43;100240.66;;;9.01;100.00
74163;BME280;62515;52.758;5.076;2023-12-22T10:00:12;100234.69;;;9.10;100.00
74163;BME280;62515;52.758;5.076;2023-12-22T10:02:42;100248.19;;;9.07;100.00
74163;BME280;62515;52.758;5.076;2023-12-22T10:05:09;100241.69;;;9.11;100.00
74163;BME280;62515;52.758;5.076;2023-12-22T10:07:36;100236.13;;;9.14;100.00
74163;BME280;62515;52.758;5.076;2023-12-22T10:10:04;100242.06;;;9.17;100.00
74163;BME280;62515;52.758;5.076;2023-12-22T10:12:33;100243.38;;;9.12;100.00
74163;BME280;62515;52.758;5.076;2023-12-22T10:15:01;100251.81;;;9.06;100.00
74163;BME280;62515;52.758;5.076;2023-12-22T10:17:29;100262.19;;;9.09;100.00
74163;BME280;62515;52.758;5.076;2023-12-22T10:19:58;100259.53;;;9.09;100.00
74163;BME280;62515;52.758;5.076;2023-12-22T10:22:24;100248.91;;;9.09;100.00
74163;BME280;62515;52.758;5.076;2023-12-22T10:24:51;100239.63;;;9.03;100.00
74163;BME280;62515;52.758;5.076;2023-12-22T10:27:18;100246.97;;;9.11;100.00
74163;BME280;62515;52.758;5.076;2023-12-22T10:29:45;100238.59;;;9.17;100.00
74163;BME280;62515;52.758;5.076;2023-12-22T10:32:14;100239.78;;;9.13;100.00
74163;BME280;62515;52.758;5.076;2023-12-22T10:34:41;100242.75;;;9.08;100.00
74163;BME280;62515;52.758;5.076;2023-12-22T10:37:10;100234.69;;;9.10;100.00
74163;BME280;62515;52.758;5.076;2023-12-22T10:39:36;100234.94;;;9.18;100.00
74163;BME280;62515;52.758;5.076;2023-12-22T10:42:04;100233.28;;;9.28;100.00
74163;BME280;62515;52.758;5.076;2023-12-22T10:44:31;100228.59;;;9.31;100.00
74163;BME280;62515;52.758;5.076;2023-12-22T10:46:58;100236.91;;;9.27;100.00
74163;BME280;62515;52.758;5.076;2023-12-22T10:49:25;100234.00;;;9.30;100.00
74163;BME280;62515;52.758;5.076;2023-12-22T10:51:52;100223.66;;;9.38;100.00
74163;BME280;62515;52.758;5.076;2023-12-22T10:54:20;100229.22;;;9.35;100.00
74163;BME280;62515;52.758;5.076;2023-12-22T10:56:47;100219.13;;;9.51;100.00
74163;BME280;62515;52.758;5.076;2023-12-22T10:59:16;100221.06;;;9.49;100.00
74163;BME280;62515;52.758;5.076;2023-12-22T11:01:44;100222.00;;;9.59;100.00
74163;BME280;62515;52.758;5.076;2023-12-22T11:04:17;100222.72;;;9.50;100.00
74163;BME280;62515;52.758;5.076;2023-12-22T11:06:47;100225.28;;;9.52;100.00
74163;BME280;62515;52.758;5.076;2023-12-22T11:09:16;100213.72;;;9.75;100.00
74163;BME280;62515;52.758;5.076;2023-12-22T11:11:45;100209.03;;;10.23;100.00
74163;BME280;62515;52.758;5.076;2023-12-22T11:14:13;100208.16;;;9.89;100.00
74163;BME280;62515;52.758;5.076;2023-12-22T11:16:41;100201.97;;;9.66;100.00
74163;BME280;62515;52.758;5.076;2023-12-22T11:19:09;100198.72;;;9.63;100.00
74163;BME280;62515;52.758;5.076;2023-12-22T11:21:37;100191.09;;;9.69;100.00
74163;BME280;62515;52.758;5.076;2023-12-22T11:24:06;100189.19;;;9.71;100.00
74163;BME280;62515;52.758;5.076;2023-12-22T11:26:33;100194.75;;;9.68;100.00
74163;BME280;62515;52.758;5.076;2023-12-22T11:29:02;100185.06;;;9.67;100.00
74163;BME280;62515;52.758;5.076;2023-12-22T11:31:31;100190.59;;;9.53;100.00
74163;BME280;62515;52.758;5.076;2023-12-22T11:33:58;100196.16;;;9.50;100.00
74163;BME280;62515;52.758;5.076;2023-12-22T11:36:38;100178.78;;;9.46;100.00
74163;BME280;62515;52.758;5.076;2023-12-22T11:39:05;100158.88;;;9.52;100.00
74163;BME280;62515;52.758;5.076;2023-12-22T11:41:34;100172.75;;;9.55;100.00
74163;BME280;62515;52.758;5.076;2023-12-22T11:44:04;100170.09;;;9.55;100.00
74163;BME280;62515;52.758;5.076;2023-12-22T11:46:32;100162.63;;;9.60;100.00
74163;BME280;62515;52.758;5.076;2023-12-22T11:49:00;100154.63;;;9.60;100.00
74163;BME280;62515;52.758;5.076;2023-12-22T11:51:31;100156.09;;;9.64;100.00
74163;BME280;62515;52.758;5.076;2023-12-22T11:53:58;100143.91;;;9.62;100.00
74163;BME280;62515;52.758;5.076;2023-12-22T11:56:25;100149.47;;;9.59;100.00
74163;BME280;62515;52.758;5.076;2023-12-22T11:58:52;100134.59;;;9.56;100.00
74163;BME280;62515;52.758;5.076;2023-12-22T12:01:23;100145.72;;;9.61;100.00
74163;BME280;62515;52.758;5.076;2023-12-22T12:03:51;100141.97;;;9.64;100.00
74163;BME280;62515;52.758;5.076;2023-12-22T12:06:31;100150.81;;;9.75;100.00
74163;BME280;62515;52.758;5.076;2023-12-22T12:08:59;100145.09;;;9.80;100.00
74163;BME280;62515;52.758;5.076;2023-12-22T12:14:37;100150.16;;;9.83;100.00
74163;BME280;62515;52.758;5.076;2023-12-22T12:17:08;100136.88;;;9.94;100.00
74163;BME280;62515;52.758;5.076;2023-12-22T12:19:37;100142.66;;;9.99;100.00
74163;BME280;62515;52.758;5.076;2023-12-22T12:22:04;100144.13;;;10.03;100.00
74163;BME280;62515;52.758;5.076;2023-12-22T12:24:31;100127.72;;;9.98;100.00
74163;BME280;62515;52.758;5.076;2023-12-22T12:26:58;100130.13;;;9.90;100.00
74163;BME280;62515;52.758;5.076;2023-12-22T12:29:25;100123.00;;;9.90;100.00
74163;BME280;62515;52.758;5.076;2023-12-22T12:31:52;100105.00;;;9.83;100.00
74163;BME280;62515;52.758;5.076;2023-12-22T12:34:22;100124.69;;;9.80;100.00
74163;BME280;62515;52.758;5.076;2023-12-22T12:36:50;100113.25;;;9.69;100.00
74163;BME280;62515;52.758;5.076;2023-12-22T12:39:22;100128.19;;;9.70;100.00
74163;BME280;62515;52.758;5.076;2023-12-22T12:41:54;100116.59;;;9.71;100.00
74163;BME280;62515;52.758;5.076;2023-12-22T12:44:21;100116.59;;;9.71;100.00
74163;BME280;62515;52.758;5.076;2023-12-22T12:46:49;100114.06;;;9.80;100.00
74163;BME280;62515;52.758;5.076;2023-12-22T12:49:16;100116.59;;;9.82;100.00
74163;BME280;62515;52.758;5.076;2023-12-22T12:51:46;100119.38;;;9.80;100.00
74163;BME280;62515;52.758;5.076;2023-12-22T12:54:13;100132.91;;;9.77;100.00
74163;BME280;62515;52.758;5.076;2023-12-22T12:56:42;100131.09;;;9.67;100.00